createdAt,value
2023-04-15T00:00:05.888Z,142.86
2023-04-15T00:01:05.815Z,143.60
2023-04-15T00:02:05.993Z,142.99
2023-04-15T00:03:06.119Z,142.49
2023-04-15T00:04:06.074Z,141.98
2023-04-15T00:05:06.008Z,143.74
2023-04-15T00:06:06.045Z,141.87
2023-04-15T00:07:06.081Z,141.74
2023-04-15T00:08:06.137Z,141.91
2023-04-15T00:09:06.179Z,140.57
2023-04-15T00:10:06.216Z,141.59
2023-04-15T00:11:06.268Z,142.00
2023-04-15T00:12:06.316Z,141.59
2023-04-15T00:13:06.367Z,140.58
2023-04-15T00:14:06.419Z,140.95
2023-04-15T00:15:06.464Z,141.38
2023-04-15T00:16:06.512Z,139.93
2023-04-15T00:17:06.563Z,139.17
2023-04-15T00:18:06.607Z,140.21
2023-04-15T00:19:06.660Z,138.88
2023-04-15T00:20:06.708Z,139.97
2023-04-15T00:21:06.761Z,140.89
2023-04-15T00:22:06.799Z,139.63
2023-04-15T00:23:06.850Z,139.93
2023-04-15T00:24:06.897Z,140.51
2023-04-15T00:25:06.935Z,138.81
2023-04-15T00:26:06.966Z,138.36
2023-04-15T00:27:07.008Z,139.73
2023-04-15T00:28:07.039Z,138.81
2023-04-15T00:29:07.090Z,139.37
2023-04-15T00:30:07.146Z,138.91
2023-04-15T00:31:07.260Z,137.99
2023-04-15T00:32:07.197Z,138.71
2023-04-15T00:33:07.225Z,137.77
2023-04-15T00:34:07.250Z,137.43
2023-04-15T00:35:07.289Z,138.85
2023-04-15T00:36:07.325Z,138.36
2023-04-15T00:37:07.361Z,136.74
2023-04-15T00:38:07.399Z,137.28
2023-04-15T00:39:07.426Z,136.87
2023-04-15T00:40:07.442Z,137.45
2023-04-15T00:41:07.439Z,137.27
2023-04-15T00:42:07.453Z,135.98
2023-04-15T00:43:07.468Z,138.37
2023-04-15T00:44:07.497Z,137.40
2023-04-15T00:45:07.494Z,137.99
2023-04-15T00:46:07.602Z,137.16
2023-04-15T00:47:07.523Z,135.97
2023-04-15T00:48:07.590Z,135.81
2023-04-15T00:49:07.624Z,138.02
2023-04-15T00:50:07.635Z,137.11
2023-04-15T00:51:07.672Z,136.82
2023-04-15T00:52:07.702Z,136.67
2023-04-15T00:53:07.765Z,137.19
2023-04-15T00:54:07.816Z,137.31
2023-04-15T00:55:07.850Z,136.39
2023-04-15T00:56:07.871Z,136.57
2023-04-15T00:57:07.920Z,136.15
2023-04-15T00:58:07.963Z,136.31
2023-04-15T00:59:07.991Z,136.42
2023-04-15T01:00:08.044Z,136.49
2023-04-15T01:01:08.143Z,136.64
2023-04-15T01:02:08.389Z,137.22
2023-04-15T01:03:08.267Z,136.52
2023-04-15T01:04:08.181Z,135.18
2023-04-15T01:05:08.110Z,135.13
2023-04-15T01:06:08.089Z,135.10
2023-04-15T01:07:08.089Z,134.59
2023-04-15T01:08:08.106Z,136.28
2023-04-15T01:09:08.113Z,134.70
2023-04-15T01:10:08.110Z,136.36
2023-04-15T01:11:08.140Z,134.90
2023-04-15T01:12:08.163Z,136.08
2023-04-15T01:13:08.191Z,134.00
2023-04-15T01:14:08.225Z,133.84
2023-04-15T01:15:08.266Z,135.21
2023-04-15T01:16:08.321Z,134.54
2023-04-15T01:17:08.342Z,134.19
2023-04-15T01:18:08.362Z,133.72
2023-04-15T01:19:08.414Z,134.71
2023-04-15T01:20:08.450Z,133.61
2023-04-15T01:21:08.496Z,134.18
2023-04-15T01:22:08.525Z,134.26
2023-04-15T01:23:08.546Z,134.42
2023-04-15T01:24:08.580Z,133.99
2023-04-15T01:25:08.611Z,133.66
2023-04-15T01:26:08.636Z,133.29
2023-04-15T01:27:08.671Z,133.31
2023-04-15T01:28:08.708Z,133.25
2023-04-15T01:29:08.735Z,134.22
2023-04-15T01:30:08.789Z,132.78
2023-04-15T01:31:08.851Z,133.43
2023-04-15T01:32:08.856Z,134.55
2023-04-15T01:33:08.904Z,133.54
2023-04-15T01:34:08.936Z,132.64
2023-04-15T01:35:09.007Z,133.94
2023-04-15T01:36:08.917Z,133.75
2023-04-15T01:37:08.934Z,133.59
2023-04-15T01:38:08.999Z,132.65
2023-04-15T01:39:09.025Z,133.65
2023-04-15T01:40:09.060Z,132.01
2023-04-15T01:41:09.056Z,132.36
2023-04-15T01:42:09.008Z,132.71
2023-04-15T01:43:09.018Z,132.54
2023-04-15T01:44:09.028Z,131.45
2023-04-15T01:45:08.985Z,131.23
2023-04-15T01:46:09.023Z,131.76
2023-04-15T01:47:09.007Z,132.31
2023-04-15T01:48:09.092Z,131.80
2023-04-15T01:49:09.035Z,133.22
2023-04-15T01:50:09.042Z,131.67
2023-04-15T01:51:09.100Z,132.45
2023-04-15T01:52:09.052Z,131.23
2023-04-15T01:53:09.102Z,132.60
2023-04-15T01:54:09.109Z,131.26
2023-04-15T01:55:09.130Z,131.59
2023-04-15T01:56:09.177Z,130.44
2023-04-15T01:57:09.211Z,132.03
2023-04-15T01:58:09.252Z,131.27
2023-04-15T01:59:09.301Z,131.97
2023-04-15T02:00:09.341Z,131.82
2023-04-15T02:01:09.403Z,130.67
2023-04-15T02:02:09.465Z,130.03
2023-04-15T02:03:09.479Z,130.17
2023-04-15T02:04:09.494Z,130.24
2023-04-15T02:05:09.481Z,130.50
2023-04-15T02:06:09.513Z,131.13
2023-04-15T02:07:09.537Z,131.09
2023-04-15T02:08:09.562Z,131.58
2023-04-15T02:09:09.568Z,128.86
2023-04-15T02:10:09.612Z,130.07
2023-04-15T02:11:09.608Z,130.86
2023-04-15T02:12:09.628Z,129.62
2023-04-15T02:13:09.626Z,129.56
2023-04-15T02:14:09.671Z,130.03
2023-04-15T02:15:09.688Z,128.04
2023-04-15T02:16:09.775Z,129.24
2023-04-15T02:17:09.780Z,128.94
2023-04-15T02:18:09.789Z,127.96
2023-04-15T02:19:09.820Z,130.18
2023-04-15T02:20:09.846Z,128.40
2023-04-15T02:21:09.907Z,128.17
2023-04-15T02:22:09.908Z,129.10
2023-04-15T02:23:09.939Z,128.77
2023-04-15T02:24:09.973Z,129.57
2023-04-15T02:25:09.991Z,128.72
2023-04-15T02:26:09.993Z,128.52
2023-04-15T02:27:09.994Z,127.56
2023-04-15T02:28:09.985Z,129.30
2023-04-15T02:29:09.988Z,128.73
2023-04-15T02:30:10.003Z,127.40
2023-04-15T02:31:10.025Z,128.65
2023-04-15T02:32:10.156Z,128.05
2023-04-15T02:33:10.078Z,128.14
2023-04-15T02:34:10.105Z,128.27
2023-04-15T02:35:10.100Z,127.38
2023-04-15T02:36:10.118Z,127.76
2023-04-15T02:37:10.127Z,126.60
2023-04-15T02:38:10.137Z,126.67
2023-04-15T02:39:10.154Z,126.67
2023-04-15T02:40:10.173Z,125.27
2023-04-15T02:41:10.165Z,126.92
2023-04-15T02:42:10.180Z,126.93
2023-04-15T02:43:10.222Z,126.16
2023-04-15T02:44:11.393Z,125.91
2023-04-15T02:45:10.275Z,127.09
2023-04-15T02:46:10.325Z,125.19
2023-04-15T02:47:10.261Z,125.27
2023-04-15T02:48:10.221Z,124.19
2023-04-15T02:49:10.212Z,125.11
2023-04-15T02:50:10.233Z,123.58
2023-04-15T02:51:10.226Z,125.18
2023-04-15T02:52:10.223Z,123.98
2023-04-15T02:53:10.211Z,124.60
2023-04-15T02:54:10.218Z,123.84
2023-04-15T02:55:10.231Z,123.43
2023-04-15T02:56:10.215Z,124.66
2023-04-15T02:57:10.210Z,122.39
2023-04-15T02:58:10.213Z,121.57
2023-04-15T02:59:10.185Z,122.22
2023-04-15T03:00:10.184Z,123.00
2023-04-15T03:01:10.220Z,121.70
2023-04-15T03:02:10.243Z,122.96
2023-04-15T03:03:10.397Z,123.25
2023-04-15T03:04:10.374Z,122.63
2023-04-15T03:05:10.283Z,123.46
2023-04-15T03:06:10.292Z,121.12
2023-04-15T03:07:10.293Z,120.94
2023-04-15T03:08:10.324Z,121.68
2023-04-15T03:09:10.378Z,122.28
2023-04-15T03:10:10.396Z,122.83
2023-04-15T03:11:10.419Z,122.42
2023-04-15T03:12:10.456Z,121.72
2023-04-15T03:13:10.472Z,121.02
2023-04-15T03:14:10.509Z,120.19
2023-04-15T03:15:10.553Z,120.58
2023-04-15T03:16:10.643Z,120.36
2023-04-15T03:17:10.614Z,120.89
2023-04-15T03:18:10.636Z,119.84
2023-04-15T03:19:11.165Z,121.08
2023-04-15T03:20:10.710Z,120.10
2023-04-15T03:21:10.695Z,119.58
2023-04-15T03:22:10.698Z,120.21
2023-04-15T03:23:10.680Z,119.43
2023-04-15T03:24:10.659Z,117.63
2023-04-15T03:25:10.645Z,119.47
2023-04-15T03:26:10.634Z,119.05
2023-04-15T03:27:10.651Z,119.23
2023-04-15T03:28:10.676Z,119.73
2023-04-15T03:29:10.713Z,119.27
2023-04-15T03:30:10.728Z,117.83
2023-04-15T03:31:10.771Z,118.01
2023-04-15T03:32:10.731Z,117.21
2023-04-15T03:33:10.733Z,115.03
2023-04-15T03:34:10.718Z,118.26
2023-04-15T03:35:10.710Z,117.34
2023-04-15T03:36:10.718Z,117.30
2023-04-15T03:37:10.731Z,116.62
2023-04-15T03:38:10.743Z,115.95
2023-04-15T03:39:10.780Z,116.98
2023-04-15T03:40:10.809Z,115.87
2023-04-15T03:41:10.807Z,117.97
2023-04-15T03:42:10.819Z,116.64
2023-04-15T03:43:10.919Z,117.40
2023-04-15T03:44:10.859Z,117.37
2023-04-15T03:45:10.854Z,116.52
2023-04-15T03:46:10.884Z,117.51
2023-04-15T03:47:10.882Z,115.14
2023-04-15T03:48:17.898Z,115.60
2023-04-15T03:49:11.820Z,115.71
2023-04-15T03:50:10.802Z,115.96
2023-04-15T03:51:10.774Z,116.32
2023-04-15T03:52:10.756Z,115.80
2023-04-15T03:53:10.733Z,115.05
2023-04-15T03:54:10.712Z,114.52
2023-04-15T03:55:10.694Z,116.08
2023-04-15T03:56:10.664Z,114.74
2023-04-15T03:57:10.652Z,113.79
2023-04-15T03:58:10.621Z,114.65
2023-04-15T03:59:10.591Z,114.39
2023-04-15T04:00:10.581Z,114.43
2023-04-15T04:01:10.548Z,113.97
2023-04-15T04:02:10.642Z,113.11
2023-04-15T04:03:10.739Z,113.21
2023-04-15T04:04:10.572Z,112.34
2023-04-15T04:05:10.475Z,112.81
2023-04-15T04:06:10.450Z,112.87
2023-04-15T04:07:10.440Z,113.05
2023-04-15T04:08:10.420Z,112.26
2023-04-15T04:09:10.409Z,113.92
2023-04-15T04:10:10.399Z,113.50
2023-04-15T04:11:10.375Z,113.56
2023-04-15T04:12:10.348Z,113.10
2023-04-15T04:13:10.325Z,112.29
2023-04-15T04:14:10.325Z,112.36
2023-04-15T04:15:10.318Z,110.23
2023-04-15T04:16:10.358Z,111.89
2023-04-15T04:17:10.342Z,110.45
2023-04-15T04:18:10.265Z,111.10
2023-04-15T04:19:10.251Z,112.24
2023-04-15T04:20:10.243Z,111.34
2023-04-15T04:21:10.254Z,111.60
2023-04-15T04:22:10.265Z,111.40
2023-04-15T04:23:10.265Z,111.11
2023-04-15T04:24:10.239Z,111.32
2023-04-15T04:25:10.260Z,110.44
2023-04-15T04:26:10.191Z,110.70
2023-04-15T04:27:10.168Z,111.23
2023-04-15T04:28:10.135Z,110.07
2023-04-15T04:29:10.108Z,109.10
2023-04-15T04:30:10.087Z,110.94
2023-04-15T04:31:10.068Z,109.42
2023-04-15T04:32:10.242Z,109.43
2023-04-15T04:33:10.100Z,109.13
2023-04-15T04:34:10.062Z,110.04
2023-04-15T04:35:10.044Z,110.00
2023-04-15T04:36:10.030Z,107.91
2023-04-15T04:37:10.080Z,108.84
2023-04-15T04:38:09.969Z,108.39
2023-04-15T04:39:09.953Z,110.18
2023-04-15T04:40:09.934Z,108.78
2023-04-15T04:41:09.923Z,109.52
2023-04-15T04:42:09.924Z,107.91
2023-04-15T04:43:09.920Z,107.99
2023-04-15T04:44:09.931Z,108.06
2023-04-15T04:45:09.979Z,109.41
2023-04-15T04:46:10.102Z,109.78
2023-04-15T04:47:10.073Z,108.81
2023-04-15T04:48:10.086Z,107.49
2023-04-15T04:49:10.091Z,107.89
2023-04-15T04:50:10.128Z,106.72
2023-04-15T04:51:10.146Z,107.61
2023-04-15T04:52:10.154Z,107.94
2023-04-15T04:53:10.182Z,107.21
2023-04-15T04:54:10.224Z,106.80
2023-04-15T04:55:10.236Z,107.48
2023-04-15T04:56:10.245Z,107.03
2023-04-15T04:57:10.277Z,107.63
2023-04-15T04:58:10.318Z,108.09
2023-04-15T04:59:10.351Z,107.46
2023-04-15T05:00:10.373Z,107.24
2023-04-15T05:01:10.594Z,107.96
2023-04-15T05:02:10.500Z,107.66
2023-04-15T05:03:10.622Z,105.55
2023-04-15T05:04:10.513Z,106.79
2023-04-15T05:05:10.446Z,107.85
2023-04-15T05:06:10.408Z,108.01
2023-04-15T05:07:10.391Z,106.81
2023-04-15T05:08:10.383Z,106.80
2023-04-15T05:09:10.371Z,106.44
2023-04-15T05:10:10.387Z,106.24
2023-04-15T05:11:10.389Z,106.88
2023-04-15T05:12:10.409Z,105.63
2023-04-15T05:13:10.429Z,106.68
2023-04-15T05:14:10.450Z,106.87
2023-04-15T05:15:10.470Z,108.42
2023-04-15T05:16:10.512Z,104.61
2023-04-15T05:17:10.511Z,105.92
2023-04-15T05:18:10.560Z,106.08
2023-04-15T05:19:10.603Z,106.16
2023-04-15T05:20:10.630Z,106.51
2023-04-15T05:21:10.640Z,106.51
2023-04-15T05:22:10.654Z,105.39
2023-04-15T05:23:10.661Z,106.07
2023-04-15T05:24:10.648Z,104.67
2023-04-15T05:25:10.656Z,104.49
2023-04-15T05:26:10.660Z,104.98
2023-04-15T05:27:10.676Z,104.77
2023-04-15T05:28:10.690Z,105.29
2023-04-15T05:29:10.698Z,104.61
2023-04-15T05:30:12.793Z,103.60
2023-04-15T05:31:10.715Z,106.53
2023-04-15T05:32:10.640Z,104.18
2023-04-15T05:33:10.630Z,105.07
2023-04-15T05:34:10.602Z,103.99
2023-04-15T05:35:10.598Z,105.19
2023-04-15T05:36:10.569Z,103.54
2023-04-15T05:37:10.546Z,103.47
2023-04-15T05:38:10.537Z,104.35
2023-04-15T05:39:10.515Z,103.47
2023-04-15T05:40:10.512Z,103.66
2023-04-15T05:41:10.472Z,102.72
2023-04-15T05:42:10.442Z,102.48
2023-04-15T05:43:10.428Z,102.71
2023-04-15T05:44:10.397Z,101.28
2023-04-15T05:45:10.373Z,102.63
2023-04-15T05:46:10.439Z,102.32
2023-04-15T05:47:10.363Z,101.56
2023-04-15T05:48:10.307Z,102.15
2023-04-15T05:49:10.288Z,102.02
2023-04-15T05:50:10.259Z,100.53
2023-04-15T05:51:10.253Z,102.49
2023-04-15T05:52:10.236Z,100.79
2023-04-15T05:53:10.196Z,102.37
2023-04-15T05:54:10.178Z,102.18
2023-04-15T05:55:10.165Z,101.68
2023-04-15T05:56:10.136Z,100.88
2023-04-15T05:57:10.116Z,101.14
2023-04-15T05:58:10.094Z,100.52
2023-04-15T05:59:10.073Z,99.62
2023-04-15T06:00:10.045Z,101.44
2023-04-15T06:01:10.040Z,101.36
2023-04-15T06:02:10.032Z,100.72
2023-04-15T06:03:10.039Z,99.92
2023-04-15T06:04:10.027Z,99.96
2023-04-15T06:05:10.151Z,100.19
2023-04-15T06:06:09.902Z,99.59
2023-04-15T06:07:09.852Z,99.64
2023-04-15T06:08:09.837Z,99.94
2023-04-15T06:09:09.794Z,99.10
2023-04-15T06:10:09.765Z,98.87
2023-04-15T06:11:09.749Z,99.34
2023-04-15T06:12:09.732Z,98.74
2023-04-15T06:13:09.723Z,98.71
2023-04-15T06:14:09.686Z,98.52
2023-04-15T06:15:09.664Z,98.20
2023-04-15T06:16:09.674Z,98.80
2023-04-15T06:17:09.619Z,98.68
2023-04-15T06:18:09.615Z,96.77
2023-04-15T06:19:09.894Z,98.01
2023-04-15T06:20:09.567Z,97.83
2023-04-15T06:21:09.613Z,100.08
2023-04-15T06:22:09.527Z,99.11
2023-04-15T06:23:09.517Z,96.91
2023-04-15T06:24:09.479Z,98.47
2023-04-15T06:25:09.495Z,97.36
2023-04-15T06:26:09.450Z,98.83
2023-04-15T06:27:09.444Z,98.81
2023-04-15T06:28:09.413Z,98.25
2023-04-15T06:29:09.393Z,96.53
2023-04-15T06:30:09.377Z,98.03
2023-04-15T06:31:09.389Z,97.84
2023-04-15T06:32:09.338Z,99.67
2023-04-15T06:33:09.307Z,97.71
2023-04-15T06:34:09.304Z,98.34
2023-04-15T06:35:09.282Z,97.55
2023-04-15T06:36:09.250Z,97.13
2023-04-15T06:37:09.260Z,96.67
2023-04-15T06:38:09.208Z,97.76
2023-04-15T06:39:09.199Z,95.41
2023-04-15T06:40:09.180Z,96.10
2023-04-15T06:41:09.153Z,97.86
2023-04-15T06:42:09.126Z,95.01
2023-04-15T06:43:09.103Z,97.43
2023-04-15T06:44:09.072Z,97.51
2023-04-15T06:45:09.037Z,96.65
2023-04-15T06:46:09.027Z,96.55
2023-04-15T06:47:09.001Z,97.22
2023-04-15T06:48:09.732Z,96.56
2023-04-15T06:49:08.934Z,96.99
2023-04-15T06:50:08.926Z,98.48
2023-04-15T06:51:08.912Z,95.69
2023-04-15T06:52:08.900Z,97.80
2023-04-15T06:53:08.862Z,96.84
2023-04-15T06:54:08.839Z,96.02
2023-04-15T06:55:08.825Z,96.97
2023-04-15T06:56:08.835Z,95.81
2023-04-15T06:57:08.877Z,96.81
2023-04-15T06:58:08.905Z,96.27
2023-04-15T06:59:08.916Z,96.15
2023-04-15T07:00:08.954Z,95.65
2023-04-15T07:01:09.026Z,95.01
2023-04-15T07:02:09.069Z,96.16
2023-04-15T07:03:09.088Z,95.28
2023-04-15T07:04:09.126Z,93.01
2023-04-15T07:05:09.140Z,94.90
2023-04-15T07:06:09.162Z,93.48
2023-04-15T07:07:09.183Z,93.86
2023-04-15T07:08:09.235Z,94.05
2023-04-15T07:09:09.279Z,93.85
2023-04-15T07:10:09.330Z,93.85
2023-04-15T07:11:09.376Z,94.43
2023-04-15T07:12:09.412Z,94.75
2023-04-15T07:13:09.431Z,95.13
2023-04-15T07:14:09.480Z,94.40
2023-04-15T07:15:09.515Z,92.73
2023-04-15T07:16:09.556Z,93.41
2023-04-15T07:17:09.732Z,93.97
2023-04-15T07:18:09.657Z,93.57
2023-04-15T07:19:09.778Z,92.62
2023-04-15T07:20:09.731Z,93.69
2023-04-15T07:21:09.776Z,93.74
2023-04-15T07:22:09.829Z,93.01
2023-04-15T07:23:09.866Z,92.69
2023-04-15T07:24:09.909Z,92.10
2023-04-15T07:25:09.952Z,91.82
2023-04-15T07:26:09.995Z,93.22
2023-04-15T07:27:10.041Z,92.42
2023-04-15T07:28:10.076Z,92.89
2023-04-15T07:29:10.112Z,91.43
2023-04-15T07:30:10.168Z,92.10
2023-04-15T07:31:10.262Z,93.78
2023-04-15T07:32:10.249Z,92.33
2023-04-15T07:33:10.280Z,92.01
2023-04-15T07:34:10.361Z,90.69
2023-04-15T07:35:10.379Z,91.77
2023-04-15T07:36:10.393Z,92.22
2023-04-15T07:37:10.430Z,90.83
2023-04-15T07:38:10.479Z,90.83
2023-04-15T07:39:10.508Z,90.03
2023-04-15T07:40:10.555Z,91.24
2023-04-15T07:41:10.610Z,90.37
2023-04-15T07:42:10.636Z,89.30
2023-04-15T07:43:10.676Z,89.67
2023-04-15T07:44:10.718Z,91.37
2023-04-15T07:45:10.752Z,89.45
2023-04-15T07:46:10.872Z,89.37
2023-04-15T07:47:10.844Z,90.41
2023-04-15T07:48:10.869Z,89.73
2023-04-15T07:49:10.906Z,89.37
2023-04-15T07:50:10.949Z,89.42
2023-04-15T07:51:10.971Z,86.55
2023-04-15T07:52:11.020Z,88.08
2023-04-15T07:53:11.056Z,88.14
2023-04-15T07:54:11.093Z,90.32
2023-04-15T07:55:11.134Z,87.22
2023-04-15T07:56:11.168Z,88.83
2023-04-15T07:57:11.204Z,88.90
2023-04-15T07:58:11.238Z,87.62
2023-04-15T07:59:11.278Z,87.86
2023-04-15T08:00:11.318Z,89.27
2023-04-15T08:01:11.349Z,88.02
2023-04-15T08:02:11.481Z,88.73
2023-04-15T08:03:11.519Z,88.68
2023-04-15T08:04:11.584Z,88.55
2023-04-15T08:05:11.500Z,88.84
2023-04-15T08:06:11.521Z,88.61
2023-04-15T08:07:11.551Z,90.31
2023-04-15T08:08:11.591Z,88.85
2023-04-15T08:09:11.616Z,89.27
2023-04-15T08:10:11.667Z,88.94
2023-04-15T08:11:11.689Z,88.25
2023-04-15T08:12:11.730Z,88.49
2023-04-15T08:13:11.794Z,87.65
2023-04-15T08:14:11.809Z,87.56
2023-04-15T08:15:11.844Z,88.05
2023-04-15T08:16:11.934Z,86.95
2023-04-15T08:17:11.905Z,86.89
2023-04-15T08:18:11.938Z,88.62
2023-04-15T08:19:11.977Z,88.15
2023-04-15T08:20:12.003Z,87.40
2023-04-15T08:21:12.042Z,87.87
2023-04-15T08:22:17.578Z,86.65
2023-04-15T08:23:13.037Z,86.74
2023-04-15T08:24:12.066Z,86.78
2023-04-15T08:25:11.975Z,87.32
2023-04-15T08:26:11.943Z,86.63
2023-04-15T08:27:11.934Z,87.01
2023-04-15T08:28:11.887Z,86.94
2023-04-15T08:29:11.863Z,86.35
2023-04-15T08:30:11.850Z,87.05
2023-04-15T08:31:11.837Z,87.86
2023-04-15T08:32:11.797Z,86.91
2023-04-15T08:33:11.788Z,86.59
2023-04-15T08:34:11.820Z,87.52
2023-04-15T08:35:11.863Z,87.05
2023-04-15T08:36:11.893Z,86.10
2023-04-15T08:37:12.803Z,84.82
2023-04-15T08:38:11.973Z,87.49
2023-04-15T08:39:12.007Z,86.14
2023-04-15T08:40:12.038Z,85.47
2023-04-15T08:41:12.060Z,86.25
2023-04-15T08:42:12.082Z,85.66
2023-04-15T08:43:12.146Z,85.09
2023-04-15T08:44:12.156Z,85.58
2023-04-15T08:45:12.190Z,86.09
2023-04-15T08:46:12.228Z,85.12
2023-04-15T08:47:12.267Z,86.74
2023-04-15T08:48:12.301Z,84.46
2023-04-15T08:49:12.336Z,84.79
2023-04-15T08:50:12.353Z,85.03
2023-04-15T08:51:12.396Z,85.95
2023-04-15T08:52:12.433Z,85.55
2023-04-15T08:53:12.487Z,84.56
2023-04-15T08:54:12.498Z,84.84
2023-04-15T08:55:12.785Z,85.43
2023-04-15T08:56:12.545Z,86.02
2023-04-15T08:57:12.578Z,86.74
2023-04-15T08:58:12.604Z,87.25
2023-04-15T08:59:12.641Z,89.24
2023-04-15T09:00:12.675Z,89.61
2023-04-15T09:01:12.711Z,89.83
2023-04-15T09:02:12.757Z,89.63
2023-04-15T09:03:12.834Z,89.11
2023-04-15T09:04:12.897Z,90.38
2023-04-15T09:05:12.810Z,90.15
2023-04-15T09:06:12.859Z,89.56
2023-04-15T09:07:12.868Z,88.06
2023-04-15T09:08:12.967Z,89.85
2023-04-15T09:09:12.949Z,90.40
2023-04-15T09:10:12.973Z,87.80
2023-04-15T09:11:12.989Z,88.21
2023-04-15T09:12:13.019Z,89.32
2023-04-15T09:13:13.052Z,90.09
2023-04-15T09:14:13.071Z,89.66
2023-04-15T09:15:13.136Z,90.01
2023-04-15T09:16:13.119Z,89.86
2023-04-15T09:17:13.144Z,89.43
2023-04-15T09:18:13.166Z,90.58
2023-04-15T09:19:13.171Z,91.13
2023-04-15T09:20:13.198Z,89.61
2023-04-15T09:21:13.218Z,89.42
2023-04-15T09:22:13.242Z,89.91
2023-04-15T09:23:13.255Z,89.34
2023-04-15T09:24:13.271Z,89.72
2023-04-15T09:25:13.287Z,88.65
2023-04-15T09:26:13.307Z,89.56
2023-04-15T09:27:13.338Z,90.25
2023-04-15T09:28:13.356Z,89.65
2023-04-15T09:29:13.371Z,89.13
2023-04-15T09:30:13.444Z,90.20
2023-04-15T09:31:13.427Z,88.26
2023-04-15T09:32:13.418Z,87.75
2023-04-15T09:33:13.437Z,88.58
2023-04-15T09:34:13.450Z,86.89
2023-04-15T09:35:13.469Z,84.26
2023-04-15T09:36:13.471Z,84.28
2023-04-15T09:38:13.509Z,81.99
2023-04-15T09:39:13.639Z,82.48
2023-04-15T09:40:13.553Z,81.82
2023-04-15T09:41:13.553Z,82.90
2023-04-15T09:42:13.569Z,80.51
2023-04-15T09:43:13.593Z,81.05
2023-04-15T09:44:13.601Z,81.32
2023-04-15T09:45:13.621Z,80.23
2023-04-15T09:46:13.668Z,78.65
2023-04-15T09:47:13.646Z,80.01
2023-04-15T09:48:13.661Z,80.92
2023-04-15T09:49:13.741Z,79.84
2023-04-15T09:50:13.678Z,80.44
2023-04-15T09:51:13.677Z,80.59
2023-04-15T09:52:13.692Z,80.35
2023-04-15T09:53:13.692Z,80.63
2023-04-15T09:54:13.707Z,81.50
2023-04-15T09:55:13.712Z,81.20
2023-04-15T09:56:13.722Z,80.16
2023-04-15T09:57:13.737Z,81.85
2023-04-15T09:58:13.724Z,84.38
2023-04-15T09:59:13.737Z,80.48
2023-04-15T10:00:13.741Z,82.41
2023-04-15T10:01:13.766Z,80.96
2023-04-15T10:02:13.864Z,82.68
2023-04-15T10:03:13.853Z,83.53
2023-04-15T10:04:13.848Z,81.50
2023-04-15T10:05:13.779Z,82.08
2023-04-15T10:06:13.783Z,83.68
2023-04-15T10:07:13.792Z,83.29
2023-04-15T10:08:13.803Z,81.32
2023-04-15T10:09:13.811Z,81.95
2023-04-15T10:10:13.837Z,82.73
2023-04-15T10:11:13.825Z,83.40
2023-04-15T10:12:13.826Z,82.98
2023-04-15T10:13:13.825Z,81.71
2023-04-15T10:14:13.860Z,82.52
2023-04-15T10:15:13.852Z,81.66
2023-04-15T10:16:13.873Z,81.21
2023-04-15T10:17:13.854Z,80.33
2023-04-15T10:18:13.861Z,81.87
2023-04-15T10:19:13.876Z,82.71
2023-04-15T10:20:13.878Z,80.41
2023-04-15T10:21:13.899Z,80.74
2023-04-15T10:22:13.891Z,82.20
2023-04-15T10:23:13.902Z,80.32
2023-04-15T10:24:13.912Z,81.01
2023-04-15T10:25:13.927Z,79.10
2023-04-15T10:26:13.937Z,81.69
2023-04-15T10:27:13.945Z,80.43
2023-04-15T10:28:13.951Z,80.37
2023-04-15T10:29:13.970Z,78.73
2023-04-15T10:30:13.982Z,77.16
2023-04-15T10:31:14.013Z,76.34
2023-04-15T10:32:13.986Z,77.26
2023-04-15T10:33:13.995Z,78.63
2023-04-15T10:34:14.083Z,79.24
2023-04-15T10:35:14.001Z,77.23
2023-04-15T10:36:14.022Z,79.53
2023-04-15T10:37:14.009Z,78.80
2023-04-15T10:38:14.014Z,76.98
2023-04-15T10:39:14.026Z,77.40
2023-04-15T10:40:14.064Z,79.46
2023-04-15T10:41:14.030Z,77.79
2023-04-15T10:42:14.045Z,77.02
2023-04-15T10:43:14.044Z,77.68
2023-04-15T10:44:14.051Z,75.95
2023-04-15T10:45:14.051Z,78.54
2023-04-15T10:46:14.107Z,76.79
2023-04-15T10:47:14.073Z,77.90
2023-04-15T10:48:14.076Z,79.66
2023-04-15T10:49:14.088Z,78.88
2023-04-15T10:50:14.086Z,77.86
2023-04-15T10:51:14.087Z,77.86
2023-04-15T10:52:14.105Z,77.43
2023-04-15T10:53:14.101Z,78.92
2023-04-15T10:54:14.106Z,76.55
2023-04-15T10:55:14.114Z,79.02
2023-04-15T10:56:14.125Z,78.25
2023-04-15T10:57:14.127Z,77.83
2023-04-15T10:58:14.130Z,78.16
2023-04-15T10:59:14.150Z,80.09
2023-04-15T11:00:14.204Z,79.30
2023-04-15T11:01:14.157Z,79.86
2023-04-15T11:02:14.234Z,79.67
2023-04-15T11:03:14.272Z,79.08
2023-04-15T11:04:14.221Z,79.35
2023-04-15T11:05:14.216Z,81.67
2023-04-15T11:06:14.192Z,81.03
2023-04-15T11:07:14.200Z,81.28
2023-04-15T11:08:14.213Z,80.11
2023-04-15T11:09:14.221Z,80.84
2023-04-15T11:10:14.249Z,79.66
2023-04-15T11:11:14.237Z,82.07
2023-04-15T11:12:14.244Z,81.92
2023-04-15T11:13:14.248Z,80.95
2023-04-15T11:14:14.268Z,82.42
2023-04-15T11:15:14.269Z,81.14
2023-04-15T11:16:14.287Z,82.72
2023-04-15T11:17:14.280Z,82.30
2023-04-15T11:18:14.294Z,83.73
2023-04-15T11:19:14.289Z,82.43
2023-04-15T11:20:14.304Z,83.68
2023-04-15T11:21:14.307Z,83.78
2023-04-15T11:22:14.315Z,83.48
2023-04-15T11:23:15.718Z,84.02
2023-04-15T11:24:14.333Z,83.94
2023-04-15T11:25:14.344Z,83.44
2023-04-15T11:26:14.348Z,83.53
2023-04-15T11:27:14.360Z,84.73
2023-04-15T11:28:14.388Z,83.13
2023-04-15T11:29:14.369Z,82.99
2023-04-15T11:30:14.387Z,84.19
2023-04-15T11:31:14.388Z,83.27
2023-04-15T11:32:14.412Z,84.14
2023-04-15T11:33:14.416Z,84.40
2023-04-15T11:34:14.416Z,82.69
2023-04-15T11:35:14.441Z,83.84
2023-04-15T11:36:14.452Z,83.67
2023-04-15T11:37:14.459Z,84.38
2023-04-15T11:38:14.488Z,85.25
2023-04-15T11:39:14.487Z,83.82
2023-04-15T11:40:14.517Z,83.83
2023-04-15T11:41:14.516Z,83.54
2023-04-15T11:42:14.536Z,84.31
2023-04-15T11:43:14.562Z,85.25
2023-04-15T11:44:14.573Z,84.37
2023-04-15T11:45:14.581Z,84.06
2023-04-15T11:46:14.662Z,81.72
2023-04-15T11:47:14.600Z,83.63
2023-04-15T11:48:14.624Z,83.93
2023-04-15T11:49:14.624Z,82.62
2023-04-15T11:50:14.708Z,83.59
2023-04-15T11:51:14.679Z,82.76
2023-04-15T11:52:14.648Z,84.32
2023-04-15T11:53:14.663Z,85.92
2023-04-15T11:54:14.676Z,85.00
2023-04-15T11:55:14.688Z,85.97
2023-04-15T11:56:14.703Z,84.26
2023-04-15T11:57:14.715Z,83.94
2023-04-15T11:58:16.361Z,82.73
2023-04-15T11:59:14.741Z,81.12
2023-04-15T12:00:14.761Z,83.07
2023-04-15T12:01:14.766Z,82.29
2023-04-15T12:02:14.949Z,84.68
2023-04-15T12:03:15.217Z,84.32
2023-04-15T12:04:14.949Z,82.33
2023-04-15T12:05:14.919Z,81.47
2023-04-15T12:06:14.832Z,81.22
2023-04-15T12:07:14.857Z,81.71
2023-04-15T12:08:14.883Z,80.91
2023-04-15T12:09:14.870Z,79.61
2023-04-15T12:10:14.902Z,78.30
2023-04-15T12:11:14.908Z,79.12
2023-04-15T12:12:14.915Z,79.81
2023-04-15T12:13:14.941Z,79.44
2023-04-15T12:14:14.942Z,78.59
2023-04-15T12:15:14.955Z,81.60
2023-04-15T12:16:15.004Z,80.59
2023-04-15T12:17:14.986Z,80.37
2023-04-15T12:18:15.035Z,77.82
2023-04-15T12:19:15.032Z,76.88
2023-04-15T12:20:15.057Z,76.60
2023-04-15T12:21:15.050Z,77.56
2023-04-15T12:22:15.084Z,77.89
2023-04-15T12:23:15.098Z,78.25
2023-04-15T12:24:15.101Z,75.80
2023-04-15T12:25:15.134Z,76.52
2023-04-15T12:26:15.151Z,76.44
2023-04-15T12:27:15.149Z,74.73
2023-04-15T12:28:15.182Z,76.35
2023-04-15T12:29:15.204Z,75.49
2023-04-15T12:30:15.222Z,73.81
2023-04-15T12:31:15.269Z,74.34
2023-04-15T12:32:15.259Z,73.23
2023-04-15T12:33:15.269Z,75.33
2023-04-15T12:34:15.272Z,75.30
2023-04-15T12:35:15.300Z,75.87
2023-04-15T12:36:15.314Z,73.87
2023-04-15T12:37:15.325Z,74.45
2023-04-15T12:38:15.346Z,72.68
2023-04-15T12:39:15.360Z,71.95
2023-04-15T12:40:15.386Z,73.15
2023-04-15T12:41:15.396Z,75.15